Latest METARs, TAFs and NOTAMs for MMTP


---------------------------------------------------------------------------
	(OBSERVATIONS)
MMTP 212240Z 00000KT 9SM  FEW020 SCT170 BKN240 26/25 A2980  RMK
    8/853=
MMTP 212142Z 28006KT 8SM  FEW020 SCT170 BKN240 29/25 A2978  RMK
    8/823=
MMTP 212043Z 30008KT 10SM  BKN240 31/25 A2978  RMK SLP108 57022
    956 8/001 CB NE STN=
---------------------------------------------------------------------------
	(TERMINAL AREA FORECAST)
MMTP 212327Z 2200/2306 24010KT P6SM SCT020 SCT140 BKN240
    TEMPO 2200/2204 4SM TSRA BKN015CB
    FM220600 00000KT P6SM BKN025 BKN200
    FM221200 06005KT P6SM BKN080
    FM221800 24010KT P6SM SCT040 BKN200
    PROB40 2222/2302 4SM TSRA BKN040CB=
---------------------------------------------------------------------------
	(NOTAMS)


Sorry, no NOTAM available for MMTP
---------------------------------------------------------------------------